createdAt,value
2023-05-15T00:02:09.065Z,2.17
2023-05-15T00:04:36.545Z,2.30
2023-05-15T00:07:03.934Z,2.13
2023-05-15T00:09:31.332Z,2.30
2023-05-15T00:11:58.867Z,1.90
2023-05-15T00:14:26.412Z,1.90
2023-05-15T00:16:53.721Z,2.23
2023-05-15T00:19:21.135Z,1.77
2023-05-15T00:21:48.509Z,2.08
2023-05-15T00:24:16.182Z,2.10
2023-05-15T00:26:43.894Z,2.00
2023-05-15T00:29:11.276Z,2.72
2023-05-15T00:31:38.564Z,1.90
2023-05-15T00:34:05.975Z,2.38
2023-05-15T00:36:33.362Z,3.40
2023-05-15T00:39:00.632Z,2.13
2023-05-15T00:41:32.200Z,2.20
2023-05-15T00:44:02.276Z,2.20
2023-05-15T00:46:32.568Z,1.77
2023-05-15T00:49:02.243Z,1.70
2023-05-15T00:51:29.609Z,1.65
2023-05-15T00:53:58.547Z,1.90
2023-05-15T00:56:26.444Z,2.17
2023-05-15T00:58:56.616Z,1.80
2023-05-15T01:01:25.748Z,1.85
2023-05-15T01:03:53.517Z,1.52
2023-05-15T01:06:20.860Z,1.35
2023-05-15T01:08:49.779Z,1.23
2023-05-15T01:11:18.181Z,1.10
2023-05-15T01:13:45.430Z,1.15
2023-05-15T01:16:12.673Z,1.40
2023-05-15T01:18:40.089Z,1.10
2023-05-15T01:21:54.968Z,1.07
2023-05-15T01:25:19.129Z,1.48
2023-05-15T01:27:54.776Z,1.50
2023-05-15T01:30:29.406Z,1.52
2023-05-15T01:33:25.912Z,1.80
2023-05-15T01:36:31.378Z,2.38
2023-05-15T01:39:04.365Z,3.15
2023-05-15T01:42:06.739Z,2.08
2023-05-15T01:44:46.376Z,1.92
2023-05-15T01:47:20.182Z,2.28
2023-05-15T01:49:51.769Z,2.53
2023-05-15T01:52:34.882Z,2.30
2023-05-15T01:55:05.886Z,2.47
2023-05-15T01:57:34.877Z,2.53
2023-05-15T02:00:04.158Z,2.67
2023-05-15T02:02:32.425Z,2.88
2023-05-15T02:05:01.366Z,3.70
2023-05-15T02:07:29.512Z,3.55
2023-05-15T02:09:59.115Z,3.38
2023-05-15T02:12:27.695Z,3.22
2023-05-15T02:14:57.944Z,3.90
2023-05-15T02:17:25.611Z,3.75
2023-05-15T02:19:52.851Z,3.88
2023-05-15T02:22:20.322Z,3.20
2023-05-15T02:24:47.590Z,3.70
2023-05-15T02:27:26.820Z,4.40
2023-05-15T02:30:37.291Z,4.20
2023-05-15T02:33:17.452Z,4.80
2023-05-15T02:36:08.332Z,4.35
2023-05-15T02:38:52.918Z,5.13
2023-05-15T02:41:22.058Z,6.40
2023-05-15T02:43:53.925Z,7.95
2023-05-15T02:46:25.135Z,8.52
2023-05-15T02:48:54.079Z,9.10
2023-05-15T02:53:49.931Z,7.30
2023-05-15T02:58:44.515Z,7.18
2023-05-15T03:01:12.498Z,6.97
2023-05-15T03:03:39.865Z,7.88
2023-05-15T03:06:07.349Z,7.65
2023-05-15T03:08:34.990Z,6.85
2023-05-15T03:11:02.308Z,7.25
2023-05-15T03:13:31.235Z,7.03
2023-05-15T03:15:58.663Z,7.20
2023-05-15T03:18:25.942Z,7.57
2023-05-15T03:20:53.677Z,6.95
2023-05-15T03:23:21.034Z,6.57
2023-05-15T03:25:48.329Z,7.10
2023-05-15T03:28:15.701Z,7.50
2023-05-15T03:30:46.130Z,7.30
2023-05-15T03:33:13.500Z,7.13
2023-05-15T03:35:40.902Z,7.78
2023-05-15T03:38:08.207Z,7.15
2023-05-15T03:40:35.592Z,6.32
2023-05-15T03:43:02.905Z,6.55
2023-05-15T03:45:30.279Z,6.72
2023-05-15T03:47:57.925Z,7.00
2023-05-15T03:50:25.485Z,6.50
2023-05-15T03:52:53.757Z,6.97
2023-05-15T03:55:21.055Z,7.75
2023-05-15T03:57:48.413Z,6.97
2023-05-15T04:00:17.108Z,6.55
2023-05-15T04:02:46.415Z,7.43
2023-05-15T04:05:13.974Z,6.60
2023-05-15T04:07:41.323Z,6.55
2023-05-15T04:10:09.259Z,7.93
2023-05-15T04:12:38.044Z,8.05
2023-05-15T04:15:26.348Z,7.50
2023-05-15T04:17:54.628Z,6.90
2023-05-15T04:20:24.395Z,7.53
2023-05-15T04:22:52.802Z,7.45
2023-05-15T04:25:20.880Z,7.60
2023-05-15T04:27:49.362Z,7.60
2023-05-15T04:32:44.450Z,7.17
2023-05-15T04:35:13.538Z,7.63
2023-05-15T04:37:42.889Z,7.00
2023-05-15T04:40:10.831Z,6.90
2023-05-15T04:42:51.140Z,6.57
2023-05-15T04:45:18.928Z,8.18
2023-05-15T04:47:46.489Z,6.30
2023-05-15T04:50:18.300Z,6.13
2023-05-15T04:52:45.810Z,6.00
2023-05-15T04:55:15.801Z,5.35
2023-05-15T04:57:43.135Z,5.88
2023-05-15T05:00:14.384Z,5.25
2023-05-15T05:02:45.464Z,5.60
2023-05-15T05:05:14.812Z,5.55
2023-05-15T05:08:03.788Z,6.50
2023-05-15T05:10:33.317Z,5.50
2023-05-15T05:13:00.636Z,6.18
2023-05-15T05:15:28.144Z,6.35
2023-05-15T05:18:12.194Z,5.93
2023-05-15T05:20:39.550Z,5.68
2023-05-15T05:23:08.012Z,6.43
2023-05-15T05:28:02.836Z,5.53
2023-05-15T05:30:30.266Z,4.82
2023-05-15T05:33:08.027Z,4.78
2023-05-15T05:35:35.403Z,5.22
2023-05-15T05:38:02.961Z,4.72
2023-05-15T05:40:30.647Z,3.93
2023-05-15T05:43:04.260Z,4.17
2023-05-15T05:45:33.044Z,4.70
2023-05-15T05:48:00.460Z,5.18
2023-05-15T05:52:56.313Z,6.07
2023-05-15T05:55:23.897Z,6.25
2023-05-15T05:57:51.560Z,5.22
2023-05-15T06:00:21.507Z,5.80
2023-05-15T06:02:49.047Z,5.10
2023-05-15T06:05:16.908Z,5.75
2023-05-15T06:07:44.336Z,4.47
2023-05-15T06:10:14.628Z,4.20
2023-05-15T06:12:46.921Z,4.95
2023-05-15T06:15:17.692Z,3.90
2023-05-15T06:17:51.085Z,4.68
2023-05-15T06:20:22.012Z,4.47
2023-05-15T06:22:49.638Z,2.40
2023-05-15T06:25:17.270Z,2.80
2023-05-15T06:27:44.918Z,2.47
2023-05-15T06:30:13.884Z,1.47
2023-05-15T06:32:43.149Z,0.98
2023-05-15T06:35:12.823Z,1.42
2023-05-15T06:37:40.077Z,1.33
2023-05-15T06:40:17.040Z,1.07
2023-05-15T06:42:44.414Z,1.05
2023-05-15T06:45:16.182Z,0.95
2023-05-15T06:48:10.562Z,0.70
2023-05-15T06:51:15.845Z,1.08
2023-05-15T06:54:22.632Z,1.52
2023-05-15T06:56:50.254Z,1.80
2023-05-15T06:59:29.452Z,2.90
2023-05-15T07:01:56.966Z,2.70
2023-05-15T07:04:25.342Z,2.20
2023-05-15T07:07:00.153Z,2.15
2023-05-15T07:09:32.506Z,3.20
2023-05-15T07:11:59.778Z,1.48
2023-05-15T07:14:27.236Z,1.20
2023-05-15T07:16:57.455Z,1.10
2023-05-15T07:19:24.959Z,1.13
2023-05-15T07:21:53.734Z,1.40
2023-05-15T07:26:58.116Z,1.45
2023-05-15T07:29:26.592Z,1.30
2023-05-15T07:31:54.116Z,0.90
2023-05-15T07:34:24.162Z,1.20
2023-05-15T07:36:51.420Z,1.25
2023-05-15T07:39:21.339Z,1.52
2023-05-15T07:41:51.405Z,1.38
2023-05-15T07:44:18.663Z,0.83
2023-05-15T07:46:46.319Z,1.63
2023-05-15T07:49:13.671Z,0.98
2023-05-15T07:51:41.038Z,0.90
2023-05-15T07:54:10.727Z,0.55
2023-05-15T07:56:40.637Z,0.80
2023-05-15T07:59:08.377Z,0.55
2023-05-15T08:01:41.061Z,0.50
2023-05-15T08:04:12.193Z,0.60
2023-05-15T08:06:45.223Z,0.80
2023-05-15T08:09:13.034Z,0.50
2023-05-15T08:11:40.645Z,0.63
2023-05-15T08:14:08.091Z,0.98
2023-05-15T08:16:35.586Z,1.08
2023-05-15T08:19:07.587Z,0.80
2023-05-15T08:21:35.508Z,0.50
2023-05-15T08:24:03.105Z,0.60
2023-05-15T08:26:30.595Z,0.60
2023-05-15T08:28:57.815Z,0.50
2023-05-15T08:31:25.073Z,0.68
2023-05-15T08:33:52.406Z,0.50
2023-05-15T08:36:20.396Z,0.40
2023-05-15T08:38:47.708Z,0.30
2023-05-15T08:41:40.437Z,0.60
2023-05-15T08:44:13.001Z,0.38
2023-05-15T08:46:41.699Z,0.35
2023-05-15T08:49:30.913Z,0.60
2023-05-15T08:51:59.275Z,0.30
2023-05-15T08:54:27.434Z,0.47
2023-05-15T08:56:55.049Z,0.50
2023-05-15T08:59:23.252Z,0.40
2023-05-15T09:01:51.685Z,0.50
2023-05-15T09:04:19.532Z,0.50
2023-05-15T09:06:48.351Z,0.50
2023-05-15T09:09:19.096Z,0.52
2023-05-15T09:11:48.682Z,0.88
2023-05-15T09:14:16.353Z,0.80
2023-05-15T09:16:44.798Z,0.50
2023-05-15T09:19:15.541Z,0.57
2023-05-15T09:21:43.420Z,0.47
2023-05-15T09:24:25.521Z,0.40
2023-05-15T09:27:06.254Z,0.35
2023-05-15T09:29:37.199Z,0.60
2023-05-15T09:34:00.587Z,0.50
2023-05-15T09:35:33.585Z,0.40
2023-05-15T09:38:03.571Z,0.40
2023-05-15T09:40:32.680Z,0.40
2023-05-15T09:43:00.640Z,0.40
2023-05-15T09:45:30.369Z,0.60
2023-05-15T09:48:13.466Z,0.40
2023-05-15T09:50:48.500Z,0.50
2023-05-15T09:53:21.378Z,0.57
2023-05-15T09:55:50.581Z,0.40
2023-05-15T09:58:21.243Z,0.50
2023-05-15T10:00:49.666Z,0.40
2023-05-15T10:03:21.094Z,0.68
2023-05-15T10:05:48.777Z,0.50
2023-05-15T10:08:27.403Z,0.75
2023-05-15T10:10:59.444Z,0.70
2023-05-15T10:13:30.185Z,0.60
2023-05-15T10:15:59.334Z,0.52
2023-05-15T10:18:32.293Z,0.50
2023-05-15T10:21:04.305Z,0.50
2023-05-15T10:23:36.023Z,0.50
2023-05-15T10:26:14.333Z,0.50
2023-05-15T10:28:44.955Z,0.60
2023-05-15T10:31:13.507Z,0.50
2023-05-15T10:33:41.796Z,0.47
2023-05-15T10:36:10.672Z,0.55
2023-05-15T10:38:40.522Z,0.60
2023-05-15T10:41:17.296Z,0.40
2023-05-15T10:43:47.419Z,0.40
2023-05-15T10:46:19.554Z,0.40
2023-05-15T10:48:47.183Z,0.30
2023-05-15T10:59:09.372Z,0.60
2023-05-15T11:01:41.562Z,0.20
2023-05-15T11:04:18.637Z,0.30
2023-05-15T11:09:36.401Z,0.60
2023-05-15T11:12:11.933Z,0.40
2023-05-15T11:30:17.946Z,0.32
2023-05-15T11:33:01.870Z,0.40
2023-05-15T11:35:30.372Z,0.20
2023-05-15T11:38:08.478Z,0.45
2023-05-15T11:41:02.786Z,0.43
2023-05-15T11:43:31.108Z,0.60
2023-05-15T11:46:11.051Z,0.35
2023-05-15T11:48:45.404Z,0.65
2023-05-15T11:51:26.103Z,0.30
2023-05-15T11:53:55.825Z,0.40
2023-05-15T11:56:28.526Z,0.32
2023-05-15T11:59:00.571Z,0.50
2023-05-15T12:01:38.730Z,0.38
2023-05-15T12:04:17.040Z,0.30
2023-05-15T12:06:47.693Z,0.20
2023-05-15T12:09:27.621Z,0.20
2023-05-15T12:11:56.363Z,0.20
2023-05-15T12:14:31.779Z,0.40
2023-05-15T12:17:07.303Z,0.40
2023-05-15T12:19:37.862Z,0.38
2023-05-15T12:22:06.870Z,0.40
2023-05-15T12:24:39.843Z,0.20
2023-05-15T12:27:09.453Z,0.30
2023-05-15T12:29:37.515Z,0.30
2023-05-15T12:32:06.518Z,0.30
2023-05-15T12:34:34.169Z,0.40
2023-05-15T12:37:01.763Z,0.40
2023-05-15T12:39:29.330Z,0.43
2023-05-15T12:41:59.117Z,0.30
2023-05-15T12:44:27.364Z,0.40
2023-05-15T12:46:55.833Z,0.38
2023-05-15T12:49:24.521Z,0.32
2023-05-15T12:51:51.885Z,0.30
2023-05-15T12:54:24.077Z,0.40
2023-05-15T12:56:51.804Z,0.40
2023-05-15T12:59:19.665Z,0.40
2023-05-15T13:01:47.367Z,0.40
2023-05-15T13:04:19.199Z,0.60
2023-05-15T13:06:48.012Z,0.70
2023-05-15T13:09:28.032Z,0.50
2023-05-15T13:12:02.729Z,0.25
2023-05-15T13:14:36.410Z,0.40
2023-05-15T13:17:08.212Z,0.30
2023-05-15T13:19:35.770Z,0.50
2023-05-15T13:22:06.135Z,0.30
2023-05-15T13:24:33.935Z,0.40
2023-05-15T13:27:01.376Z,0.30
2023-05-15T13:29:29.093Z,0.20
2023-05-15T13:31:57.309Z,0.35
2023-05-15T13:34:29.413Z,0.60
2023-05-15T13:37:00.893Z,0.38
2023-05-15T13:39:30.727Z,0.30
2023-05-15T13:41:58.682Z,0.20
2023-05-15T13:44:26.894Z,0.30
2023-05-15T13:46:57.113Z,0.22
2023-05-15T13:49:24.672Z,0.40
2023-05-15T13:51:52.013Z,0.20
2023-05-15T13:54:19.486Z,0.30
2023-05-15T13:56:46.901Z,0.40
2023-05-15T13:59:14.660Z,0.35
2023-05-15T14:01:42.230Z,0.30
2023-05-15T14:04:09.726Z,0.30
2023-05-15T14:06:37.201Z,0.40
2023-05-15T14:09:04.920Z,0.47
2023-05-15T14:11:32.349Z,0.40
2023-05-15T14:14:00.310Z,0.60
2023-05-15T14:16:27.808Z,0.40
2023-05-15T14:18:56.744Z,0.40
2023-05-15T14:21:24.361Z,0.40
2023-05-15T14:23:51.976Z,0.30
2023-05-15T14:26:19.498Z,0.43
2023-05-15T14:28:47.045Z,0.25
2023-05-15T14:31:14.843Z,0.25
2023-05-15T14:33:42.445Z,0.30
2023-05-15T14:36:10.103Z,0.28
2023-05-15T14:38:39.092Z,0.40
2023-05-15T14:41:06.741Z,0.65
2023-05-15T14:43:38.605Z,0.35
2023-05-15T14:46:07.598Z,0.30
2023-05-15T14:48:36.786Z,0.20
2023-05-15T14:51:07.851Z,0.20
2023-05-15T14:53:35.412Z,0.30
2023-05-15T14:56:03.280Z,0.20
2023-05-15T14:58:30.799Z,0.50
2023-05-15T15:00:59.350Z,0.20
2023-05-15T15:03:31.842Z,0.30
2023-05-15T15:06:11.689Z,0.20
2023-05-15T15:08:39.118Z,0.30
2023-05-15T15:11:07.835Z,0.30
2023-05-15T15:13:37.665Z,0.20
2023-05-15T15:16:05.307Z,0.28
2023-05-15T15:18:32.760Z,0.40
2023-05-15T15:21:01.379Z,0.57
2023-05-15T15:23:29.413Z,0.30
2023-05-15T15:25:56.843Z,0.47
2023-05-15T15:28:26.444Z,0.55
2023-05-15T15:30:56.471Z,0.30
2023-05-15T15:33:23.846Z,0.28
2023-05-15T15:35:54.953Z,0.30
2023-05-15T15:38:22.542Z,0.45
2023-05-15T15:40:49.998Z,0.35
2023-05-15T15:43:17.880Z,0.32
2023-05-15T15:45:45.410Z,0.30
2023-05-15T15:48:13.136Z,0.30
2023-05-15T15:50:54.659Z,0.30
2023-05-15T15:53:22.943Z,0.33
2023-05-15T15:55:50.758Z,0.73
2023-05-15T15:58:19.905Z,0.60
2023-05-15T16:00:47.517Z,0.50
2023-05-15T16:03:15.038Z,0.47
2023-05-15T16:05:48.577Z,0.40
2023-05-15T16:08:22.384Z,0.30
2023-05-15T16:10:49.795Z,0.50
2023-05-15T16:13:17.234Z,0.93
2023-05-15T16:15:44.700Z,0.50
2023-05-15T16:18:12.502Z,0.30
2023-05-15T16:20:39.935Z,0.50
2023-05-15T16:23:10.597Z,0.50
2023-05-15T16:25:38.098Z,0.40
2023-05-15T16:28:05.520Z,0.30
2023-05-15T16:30:44.806Z,0.50
2023-05-15T16:33:15.344Z,0.40
2023-05-15T16:35:42.877Z,0.50
2023-05-15T16:38:10.930Z,0.47
2023-05-15T16:40:39.163Z,0.40
2023-05-15T16:43:09.068Z,0.30
2023-05-15T16:45:36.522Z,0.50
2023-05-15T16:48:04.648Z,0.60
2023-05-15T16:50:36.290Z,0.65
2023-05-15T16:53:05.100Z,0.80
2023-05-15T16:55:32.778Z,0.90
2023-05-15T16:58:00.130Z,0.43
2023-05-15T17:00:30.965Z,0.40
2023-05-15T17:02:59.350Z,0.50
2023-05-15T17:05:27.016Z,0.52
2023-05-15T17:07:54.461Z,0.55
2023-05-15T17:10:22.599Z,0.50
2023-05-15T17:12:50.093Z,0.88
2023-05-15T17:15:17.598Z,0.80
2023-05-15T17:17:45.295Z,0.40
2023-05-15T17:20:13.137Z,0.50
2023-05-15T17:22:40.693Z,0.60
2023-05-15T17:25:08.828Z,0.50
2023-05-15T17:27:41.329Z,0.40
2023-05-15T17:30:12.275Z,0.60
2023-05-15T17:32:42.343Z,0.80
2023-05-15T17:35:11.179Z,0.70
2023-05-15T17:37:38.588Z,0.60
2023-05-15T17:40:07.094Z,0.65
2023-05-15T17:42:38.306Z,0.57
2023-05-15T17:45:06.502Z,0.38
2023-05-15T17:47:39.681Z,0.50
2023-05-15T17:50:08.156Z,0.50
2023-05-15T17:52:37.420Z,0.65
2023-05-15T17:55:06.251Z,0.80
2023-05-15T17:57:33.756Z,0.47
2023-05-15T18:00:01.906Z,0.70
2023-05-15T18:02:29.353Z,0.60
2023-05-15T18:04:57.195Z,0.80
2023-05-15T18:07:24.786Z,0.80
2023-05-15T18:09:52.167Z,0.75
2023-05-15T18:12:19.460Z,0.70
2023-05-15T18:14:47.265Z,0.82
2023-05-15T18:17:21.350Z,0.70
2023-05-15T18:19:48.912Z,0.77
2023-05-15T18:22:16.480Z,1.00
2023-05-15T18:24:45.615Z,0.70
2023-05-15T18:29:44.953Z,0.80
2023-05-15T21:15:28.991Z,2.13
2023-05-15T21:17:57.550Z,2.03
2023-05-15T21:20:25.523Z,2.30
2023-05-15T21:25:21.625Z,3.40
2023-05-15T21:27:49.146Z,2.90
2023-05-15T21:30:18.251Z,3.47
2023-05-15T21:32:48.017Z,3.33
2023-05-15T21:35:15.448Z,3.38
2023-05-15T21:37:42.835Z,3.08
2023-05-15T21:40:11.338Z,2.70
2023-05-15T21:45:09.649Z,2.55
2023-05-15T21:47:37.110Z,1.80
2023-05-15T21:50:05.964Z,1.83
2023-05-15T21:52:33.992Z,2.00
2023-05-15T21:55:01.852Z,1.88
2023-05-15T21:57:29.321Z,2.10
2023-05-15T21:59:56.900Z,2.00
2023-05-15T22:02:24.342Z,2.20
2023-05-15T22:04:51.873Z,2.20
2023-05-15T22:07:19.724Z,2.15
2023-05-15T22:09:47.116Z,2.40
2023-05-15T22:12:14.744Z,2.08
2023-05-15T22:14:57.040Z,2.30
2023-05-15T22:17:32.661Z,2.72
2023-05-15T22:20:07.963Z,2.47
2023-05-15T22:22:36.433Z,2.33
2023-05-15T22:25:05.750Z,2.63
2023-05-15T22:27:33.811Z,2.40
2023-05-15T22:30:01.243Z,3.00
2023-05-15T22:32:28.606Z,2.60
2023-05-15T22:34:56.404Z,2.20
2023-05-15T22:37:25.056Z,2.53
2023-05-15T22:39:53.139Z,2.28
2023-05-15T22:42:20.660Z,2.85
2023-05-15T22:44:48.168Z,2.40
2023-05-15T22:47:16.742Z,2.40
2023-05-15T22:52:13.007Z,2.10
2023-05-15T22:54:41.542Z,2.40
2023-05-15T22:57:09.377Z,2.10
2023-05-15T22:59:37.195Z,2.13
2023-05-15T23:02:04.734Z,2.05
2023-05-15T23:04:32.241Z,2.53
2023-05-15T23:06:59.637Z,2.23
2023-05-15T23:09:27.213Z,2.35
2023-05-15T23:11:54.467Z,2.13
2023-05-15T23:14:21.874Z,2.58
2023-05-15T23:16:49.937Z,2.10
2023-05-15T23:19:17.283Z,2.40
2023-05-15T23:21:44.638Z,2.42
2023-05-15T23:24:12.007Z,2.20
2023-05-15T23:26:39.281Z,2.30
2023-05-15T23:29:06.584Z,2.95
2023-05-15T23:31:34.385Z,2.20
2023-05-15T23:34:01.759Z,2.47
2023-05-15T23:36:29.156Z,3.35
2023-05-15T23:38:56.424Z,2.50
2023-05-15T23:41:23.829Z,2.83
2023-05-15T23:43:51.224Z,3.17
2023-05-15T23:46:18.606Z,2.95
2023-05-15T23:48:45.980Z,2.95
2023-05-15T23:51:13.372Z,2.72
2023-05-15T23:53:41.222Z,2.78
2023-05-15T23:56:08.523Z,2.72
2023-05-15T23:58:35.773Z,2.67
